Bayerns grosse Airshow

motor veste rechts h240

joomla templates top joomla templates template joomla

Notam

C3641/14 - CUSTOMS AVBL PPR, TEL 0049 9561 92098. 13 NOV 14:46 2014 UNTIL PERM. CREATED: 13 NOV 14:47 2014

Neue Wetteranzeige

Aktuelles Platzwetter Stand 23.11.2017 01:53Z

AvgMinMax
Windrichtung120110130Deg
Windgeschwindigkeit869kt
Sichtweite>10000m
Temperatur3°C
Taupunkt/////°C
Feuchte/////%
QNH1009.7hPa
QFE956.4hPa
WolkenSKC

Aerodrome Terminal Information Service (ATIS) Coburg

METAR
EDQC 230150Z AUTO 12008KT CAVOK 03/// Q1009=

METAR und TAF der Umgebung

[Quelle: ADDS]
METAR
EDDF 230120Z 24003KT 200V290 CAVOK 01/01 Q1008 NOSIG =
EDDN 230120Z 11008KT CAVOK 03/01 Q1010 =
EDDE 230120Z 22011KT CAVOK 07/03 Q1007 =
TAF
EDDF 222300Z 2300/2406 17003KT CAVOK BECMG 2304/2307 20008KT BECMG 2310/2313 20015G25KT BKN040 PROB30 TEMPO 2312/2318 SHRA SCT030TCU BECMG 2319/2321 20008KT =
EDDN 222300Z 2300/2324 15008KT CAVOK =
EDDE 222300Z 2300/2324 21011KT CAVOK BECMG 2308/2310 21015G25KT TEMPO 2310/2318 22020G30KT =
SR / SS: 06:44 / 15:23 UTC (EDQC 2017-11-23)

Wetterverlauf

Verkehrslandeplatz Coburg Brandensteinsebene
Tower
Zur Brandensteinsebene
96450 Coburg

AeroClub Logo 200px

Aero Club Coburg e. V.
Postfach 11 09
96401 Coburg